Time;durP1;ratioP1;P1;durP2;ratioP2;P2;SDS_P1;SDS_P2;PMS_P1;PMS_P2;Temp;Humidity;BMP_temperature;BMP_pressure;BME280_temperature;BME280_humidity;BME280_pressure;Samples;Min_cycle;Max_cycle;Signal;HPM_P1;HPM_P2
2022/07/28 00:00:09;;;;;;;9.83;5.17;;;;;;;;;;5014307;28;20474;-73
2022/07/28 00:02:34;;;;;;;9.60;5.70;;;;;;;;;;5022061;28;20799;-73
2022/07/28 00:04:59;;;;;;;11.85;5.93;;;;;;;;;;5028616;28;20037;-74
2022/07/28 00:07:25;;;;;;;8.00;4.97;;;;;;;;;;5033861;28;20030;-76
2022/07/28 00:09:50;;;;;;;7.70;5.65;;;;;;;;;;5034778;28;20117;-73
2022/07/28 00:12:15;;;;;;;7.78;4.82;;;;;;;;;;5013968;28;20022;-76
2022/07/28 00:14:41;;;;;;;14.10;5.85;;;;;;;;;;5032663;28;20052;-73
2022/07/28 00:17:06;;;;;;;12.95;5.50;;;;;;;;;;5030322;28;20466;-72
2022/07/28 00:19:31;;;;;;;8.98;5.40;;;;;;;;;;5020431;28;20033;-76
2022/07/28 00:21:56;;;;;;;8.82;5.13;;;;;;;;;;5035129;28;20099;-76
2022/07/28 00:24:23;;;;;;;9.43;5.75;;;;;;;;;;5033527;28;20033;-76
2022/07/28 00:26:48;;;;;;;8.45;4.78;;;;;;;;;;5018606;28;20033;-76
2022/07/28 00:29:13;;;;;;;11.70;5.38;;;;;;;;;;5033855;28;20028;-74
2022/07/28 00:31:38;;;;;;;7.70;5.47;;;;;;;;;;5025807;28;20025;-73
2022/07/28 00:34:03;;;;;;;8.43;5.35;;;;;;;;;;5031620;28;20013;-76
2022/07/28 00:36:29;;;;;;;10.63;5.20;;;;;;;;;;5033727;28;20056;-74
2022/07/28 00:38:54;;;;;;;7.47;5.47;;;;;;;;;;5033548;28;20029;-76
2022/07/28 00:41:20;;;;;;;7.55;4.68;;;;;;;;;;5034389;28;20486;-75
2022/07/28 00:43:46;;;;;;;9.52;4.47;;;;;;;;;;5014635;28;20056;-73
2022/07/28 00:46:12;;;;;;;15.15;5.97;;;;;;;;;;5033707;28;20091;-75
2022/07/28 00:48:38;;;;;;;7.25;4.38;;;;;;;;;;5016436;28;20025;-76
2022/07/28 00:51:03;;;;;;;7.35;5.00;;;;;;;;;;5033532;28;20508;-72
2022/07/28 00:53:28;;;;;;;6.10;3.80;;;;;;;;;;5005389;28;20029;-72
2022/07/28 00:55:54;;;;;;;12.95;4.10;;;;;;;;;;5027043;28;20057;-72
2022/07/28 00:58:19;;;;;;;7.97;4.82;;;;;;;;;;5034198;28;20493;-72
2022/07/28 01:00:44;;;;;;;7.22;4.35;;;;;;;;;;5018745;28;20041;-75
2022/07/28 01:03:09;;;;;;;10.27;4.93;;;;;;;;;;5027322;28;20030;-77
2022/07/28 01:05:55;;;;;;;17.50;6.05;;;;;;;;;;5032347;28;20030;-74
2022/07/28 01:08:32;;;;;;;8.10;4.63;;;;;;;;;;4992590;28;20587;-77
2022/07/28 01:11:03;;;;;;;7.55;4.90;;;;;;;;;;5032779;28;20045;-75
2022/07/28 01:13:33;;;;;;;10.07;4.35;;;;;;;;;;5027144;28;20057;-74
2022/07/28 01:16:01;;;;;;;9.02;4.80;;;;;;;;;;4998429;28;20509;-77
2022/07/28 01:18:29;;;;;;;6.47;4.60;;;;;;;;;;5033138;28;20535;-74
2022/07/28 01:20:57;;;;;;;7.32;4.60;;;;;;;;;;5032135;28;20053;-77
2022/07/28 01:23:31;;;;;;;7.65;4.75;;;;;;;;;;5013520;28;20044;-77
2022/07/28 01:26:10;;;;;;;10.88;4.65;;;;;;;;;;5029695;28;20025;-77
2022/07/28 01:28:45;;;;;;;7.90;3.60;;;;;;;;;;5032624;28;20413;-74
2022/07/28 01:31:13;;;;;;;8.98;4.00;;;;;;;;;;5014796;28;20029;-74
2022/07/28 01:33:42;;;;;;;9.13;4.53;;;;;;;;;;5032975;28;20032;-77
2022/07/28 01:36:10;;;;;;;7.25;4.68;;;;;;;;;;5019253;28;20129;-77
2022/07/28 01:38:36;;;;;;;7.22;3.58;;;;;;;;;;5032262;28;20024;-77
2022/07/28 01:41:02;;;;;;;11.18;4.80;;;;;;;;;;5032720;28;20042;-74
2022/07/28 01:43:30;;;;;;;7.00;4.30;;;;;;;;;;5012110;28;20030;-73
2022/07/28 01:45:56;;;;;;;9.30;5.32;;;;;;;;;;5019072;28;20461;-76
2022/07/28 01:48:22;;;;;;;8.88;5.15;;;;;;;;;;5032784;28;20038;-74
2022/07/28 01:50:49;;;;;;;10.05;4.75;;;;;;;;;;5032571;28;20037;-73
2022/07/28 01:53:15;;;;;;;13.45;4.53;;;;;;;;;;5032858;28;20518;-74
2022/07/28 01:55:42;;;;;;;11.88;4.90;;;;;;;;;;5026751;28;20101;-76
2022/07/28 01:58:11;;;;;;;10.15;4.70;;;;;;;;;;5023606;28;20393;-73
2022/07/28 02:00:41;;;;;;;12.00;4.93;;;;;;;;;;5031075;28;20388;-76
2022/07/28 02:03:09;;;;;;;8.40;4.85;;;;;;;;;;5032644;28;20018;-76
2022/07/28 02:05:35;;;;;;;8.25;5.10;;;;;;;;;;5031003;28;20087;-73
2022/07/28 02:08:01;;;;;;;7.45;5.10;;;;;;;;;;5032409;28;20033;-76
2022/07/28 02:10:28;;;;;;;9.70;5.07;;;;;;;;;;5031621;28;20478;-73
2022/07/28 02:12:53;;;;;;;8.15;4.65;;;;;;;;;;5032783;28;20017;-76
2022/07/28 02:15:19;;;;;;;10.32;5.15;;;;;;;;;;5027252;28;20028;-73
2022/07/28 02:17:45;;;;;;;10.45;5.65;;;;;;;;;;5018133;28;20029;-77
2022/07/28 02:20:13;;;;;;;10.13;6.32;;;;;;;;;;5032377;28;20096;-73
2022/07/28 02:22:39;;;;;;;7.70;5.10;;;;;;;;;;5032091;28;20036;-74
2022/07/28 02:25:05;;;;;;;10.05;5.70;;;;;;;;;;5032379;28;20079;-75
2022/07/28 02:27:35;;;;;;;13.95;7.03;;;;;;;;;;5032568;28;20029;-76
2022/07/28 02:30:06;;;;;;;13.48;7.15;;;;;;;;;;5013821;28;20022;-76
2022/07/28 02:32:36;;;;;;;9.95;5.22;;;;;;;;;;5031812;28;20025;-73
2022/07/28 02:35:09;;;;;;;9.27;5.88;;;;;;;;;;5032412;28;20540;-73
2022/07/28 02:37:37;;;;;;;9.77;6.20;;;;;;;;;;5028759;28;20017;-76
2022/07/28 02:40:03;;;;;;;8.30;5.35;;;;;;;;;;5030570;28;20044;-76
2022/07/28 02:42:31;;;;;;;16.65;6.03;;;;;;;;;;5012796;28;20556;-73
2022/07/28 02:44:58;;;;;;;20.15;6.90;;;;;;;;;;5014052;28;20034;-76
2022/07/28 02:47:25;;;;;;;15.05;6.53;;;;;;;;;;5013174;28;20014;-73
2022/07/28 02:49:51;;;;;;;9.80;5.68;;;;;;;;;;5010101;28;20030;-73
2022/07/28 02:52:17;;;;;;;9.43;5.65;;;;;;;;;;5019929;28;20025;-76
2022/07/28 02:54:43;;;;;;;13.43;6.82;;;;;;;;;;5028328;28;20020;-73
2022/07/28 02:57:09;;;;;;;10.30;6.57;;;;;;;;;;5027558;28;20470;-73
2022/07/28 02:59:35;;;;;;;9.45;5.22;;;;;;;;;;5010845;28;20026;-73
2022/07/28 03:02:01;;;;;;;9.45;6.15;;;;;;;;;;5027006;28;20466;-73
2022/07/28 03:07:11;;;;;;;9.52;5.63;;;;;;;;;;5030863;28;20336;-73
2022/07/28 03:09:37;;;;;;;9.77;5.53;;;;;;;;;;5009757;28;20121;-73
2022/07/28 03:12:03;;;;;;;9.02;6.40;;;;;;;;;;5016893;28;20116;-76
2022/07/28 03:14:28;;;;;;;6.80;5.20;;;;;;;;;;5011970;28;20526;-73
2022/07/28 03:16:53;;;;;;;16.97;6.07;;;;;;;;;;5012208;28;20477;-76
2022/07/28 03:19:21;;;;;;;13.02;6.90;;;;;;;;;;5011631;28;20381;-72
2022/07/28 03:21:48;;;;;;;11.98;6.07;;;;;;;;;;5004782;28;20433;-75
2022/07/28 03:24:15;;;;;;;14.40;6.40;;;;;;;;;;5011022;28;20049;-76
2022/07/28 03:26:45;;;;;;;18.95;7.00;;;;;;;;;;5012127;28;20026;-76
2022/07/28 03:29:10;;;;;;;11.63;6.68;;;;;;;;;;5014502;28;20045;-76
2022/07/28 03:31:36;;;;;;;11.95;6.28;;;;;;;;;;5015631;28;20049;-74
2022/07/28 03:34:04;;;;;;;12.35;6.07;;;;;;;;;;5015059;28;20080;-81
2022/07/28 03:36:32;;;;;;;14.45;6.53;;;;;;;;;;5014423;28;20018;-77
2022/07/28 03:38:59;;;;;;;14.32;7.15;;;;;;;;;;5015345;28;20496;-77
2022/07/28 03:41:25;;;;;;;10.88;6.68;;;;;;;;;;5015420;28;20029;-77
2022/07/28 03:43:51;;;;;;;14.18;6.85;;;;;;;;;;5013814;28;20026;-77
2022/07/28 03:46:17;;;;;;;10.73;7.10;;;;;;;;;;5015364;28;20382;-74
2022/07/28 03:48:42;;;;;;;11.45;7.28;;;;;;;;;;5006004;28;20041;-77
2022/07/28 03:51:08;;;;;;;9.80;7.45;;;;;;;;;;4995839;28;20027;-74
2022/07/28 03:53:33;;;;;;;14.90;6.82;;;;;;;;;;5013087;28;20016;-73
2022/07/28 03:55:58;;;;;;;9.85;6.57;;;;;;;;;;5014617;28;20061;-77
2022/07/28 03:58:27;;;;;;;12.27;6.45;;;;;;;;;;5015472;28;20057;-74
2022/07/28 04:00:52;;;;;;;17.80;7.88;;;;;;;;;;5030489;28;20025;-73
2022/07/28 04:03:18;;;;;;;16.20;8.48;;;;;;;;;;5007839;28;20421;-76
2022/07/28 04:05:43;;;;;;;15.80;7.35;;;;;;;;;;5014762;28;20037;-73
2022/07/28 04:08:08;;;;;;;13.45;6.95;;;;;;;;;;5015263;28;20081;-76
2022/07/28 04:10:34;;;;;;;11.82;7.45;;;;;;;;;;5026153;28;20452;-76
2022/07/28 04:13:02;;;;;;;15.30;6.55;;;;;;;;;;5016861;28;20104;-76
2022/07/28 04:15:29;;;;;;;14.80;6.97;;;;;;;;;;5034433;28;20072;-76
2022/07/28 04:17:55;;;;;;;20.33;7.85;;;;;;;;;;5016585;28;20021;-76
2022/07/28 04:20:21;;;;;;;13.63;6.47;;;;;;;;;;5033949;28;20485;-73
2022/07/28 04:22:47;;;;;;;10.00;5.80;;;;;;;;;;5035027;28;20052;-76
2022/07/28 04:25:13;;;;;;;10.30;6.38;;;;;;;;;;5029599;28;20049;-73
2022/07/28 04:27:42;;;;;;;15.10;6.57;;;;;;;;;;5020619;28;20026;-76
2022/07/28 04:30:18;;;;;;;21.27;7.75;;;;;;;;;;5029951;28;20095;-73
2022/07/28 04:32:43;;;;;;;13.88;6.32;;;;;;;;;;5014942;28;20021;-73
2022/07/28 04:35:09;;;;;;;10.98;6.20;;;;;;;;;;5033129;28;20030;-73
2022/07/28 04:37:35;;;;;;;12.88;6.18;;;;;;;;;;5034344;28;20485;-76
2022/07/28 04:40:01;;;;;;;14.27;6.50;;;;;;;;;;5033904;28;20018;-75
2022/07/28 04:42:26;;;;;;;17.02;6.30;;;;;;;;;;5015409;28;20108;-73
2022/07/28 04:44:51;;;;;;;12.15;5.72;;;;;;;;;;5025438;28;20028;-76
2022/07/28 04:47:16;;;;;;;12.68;7.22;;;;;;;;;;5028522;28;20413;-73
2022/07/28 04:49:42;;;;;;;13.85;6.35;;;;;;;;;;5034587;28;20063;-74
2022/07/28 04:52:07;;;;;;;10.30;6.00;;;;;;;;;;5033543;28;20072;-75
2022/07/28 04:54:36;;;;;;;12.82;5.80;;;;;;;;;;5033324;28;20405;-74
2022/07/28 04:57:01;;;;;;;12.48;6.22;;;;;;;;;;5033548;28;20013;-74
2022/07/28 04:59:26;;;;;;;11.90;6.55;;;;;;;;;;5033542;28;20060;-74
2022/07/28 05:01:52;;;;;;;11.75;6.18;;;;;;;;;;5024878;28;20533;-76
2022/07/28 05:04:17;;;;;;;12.13;6.90;;;;;;;;;;5036677;28;20025;-74
2022/07/28 05:06:43;;;;;;;12.55;6.55;;;;;;;;;;5034697;28;20474;-76
2022/07/28 05:09:08;;;;;;;10.63;5.85;;;;;;;;;;5039277;28;20058;-73
2022/07/28 05:11:33;;;;;;;16.30;6.40;;;;;;;;;;5034066;28;20041;-76
2022/07/28 05:13:58;;;;;;;12.18;6.30;;;;;;;;;;5033154;28;20030;-76
2022/07/28 05:16:24;;;;;;;13.48;6.30;;;;;;;;;;5034720;28;20398;-73
2022/07/28 05:18:49;;;;;;;19.08;6.28;;;;;;;;;;5033340;28;20477;-72
2022/07/28 05:21:14;;;;;;;11.82;5.30;;;;;;;;;;5040433;28;20021;-76
2022/07/28 05:23:39;;;;;;;13.33;5.97;;;;;;;;;;5034372;28;20416;-76
2022/07/28 05:26:05;;;;;;;10.60;5.28;;;;;;;;;;5033368;28;20271;-73
2022/07/28 05:28:31;;;;;;;9.65;4.40;;;;;;;;;;5013078;28;20393;-77
2022/07/28 05:30:56;;;;;;;13.07;6.43;;;;;;;;;;5023096;28;20033;-73
2022/07/28 05:33:21;;;;;;;8.10;4.68;;;;;;;;;;5015899;28;20315;-73
2022/07/28 05:35:52;;;;;;;8.30;4.82;;;;;;;;;;5033597;28;20017;-76
2022/07/28 05:38:17;;;;;;;11.85;5.90;;;;;;;;;;5032506;28;20029;-76
2022/07/28 05:40:43;;;;;;;6.28;4.63;;;;;;;;;;5033201;28;20385;-73
2022/07/28 05:43:08;;;;;;;10.93;4.85;;;;;;;;;;5030244;28;20549;-74
2022/07/28 05:45:33;;;;;;;9.85;4.60;;;;;;;;;;5033166;28;20037;-76
2022/07/28 05:47:59;;;;;;;10.38;4.47;;;;;;;;;;5033015;28;20075;-76
2022/07/28 05:50:24;;;;;;;12.10;4.35;;;;;;;;;;5031730;28;20456;-73
2022/07/28 05:52:50;;;;;;;9.98;4.78;;;;;;;;;;5025822;28;20025;-77
2022/07/28 05:55:16;;;;;;;9.32;4.45;;;;;;;;;;5035320;28;20033;-74
2022/07/28 05:57:41;;;;;;;10.25;4.70;;;;;;;;;;5032183;28;20028;-77
2022/07/28 06:00:08;;;;;;;8.50;4.38;;;;;;;;;;5014660;28;20057;-77
2022/07/28 06:02:33;;;;;;;8.27;4.20;;;;;;;;;;5032269;28;20037;-77
2022/07/28 06:04:58;;;;;;;10.43;4.40;;;;;;;;;;5033017;28;20044;-77
2022/07/28 06:07:24;;;;;;;8.40;4.38;;;;;;;;;;5032818;28;20029;-77
2022/07/28 06:09:49;;;;;;;8.63;3.35;;;;;;;;;;5032620;28;20037;-77
2022/07/28 06:12:14;;;;;;;7.47;4.30;;;;;;;;;;5032157;28;20040;-77
2022/07/28 06:14:39;;;;;;;9.55;4.35;;;;;;;;;;5032252;28;20053;-74
2022/07/28 06:17:04;;;;;;;11.57;3.50;;;;;;;;;;5032085;28;20047;-75
2022/07/28 06:19:30;;;;;;;12.20;4.30;;;;;;;;;;5031792;28;20436;-73
2022/07/28 06:21:55;;;;;;;8.50;4.17;;;;;;;;;;5032785;28;20155;-74
2022/07/28 06:24:20;;;;;;;8.32;5.10;;;;;;;;;;5033081;28;20735;-73
2022/07/28 06:26:45;;;;;;;10.80;5.22;;;;;;;;;;5032524;28;20390;-76
2022/07/28 06:29:11;;;;;;;9.43;4.43;;;;;;;;;;5031945;28;20373;-74
2022/07/28 06:31:37;;;;;;;10.05;4.40;;;;;;;;;;5032013;28;20433;-76
2022/07/28 06:34:02;;;;;;;3.55;3.00;;;;;;;;;;5032023;28;20019;-73
2022/07/28 06:36:28;;;;;;;12.98;4.20;;;;;;;;;;5031919;28;20032;-75
2022/07/28 06:38:56;;;;;;;19.38;5.75;;;;;;;;;;5031499;28;20367;-74
2022/07/28 06:41:21;;;;;;;20.65;6.13;;;;;;;;;;5032188;28;20033;-74
2022/07/28 06:43:46;;;;;;;11.65;4.47;;;;;;;;;;5030466;28;20140;-74
2022/07/28 06:46:17;;;;;;;16.33;4.68;;;;;;;;;;5032033;28;20033;-73
2022/07/28 06:48:44;;;;;;;12.98;6.25;;;;;;;;;;5031464;28;20060;-76
2022/07/28 06:51:09;;;;;;;13.73;4.45;;;;;;;;;;5031196;28;20031;-76
2022/07/28 06:53:35;;;;;;;16.13;6.13;;;;;;;;;;5031759;28;20014;-73
2022/07/28 06:56:01;;;;;;;13.20;5.85;;;;;;;;;;5032676;28;20029;-77
2022/07/28 06:58:26;;;;;;;13.55;4.95;;;;;;;;;;5031741;28;20029;-78
2022/07/28 07:00:52;;;;;;;19.77;4.53;;;;;;;;;;5041762;28;20120;-78
2022/07/28 07:03:17;;;;;;;12.95;4.78;;;;;;;;;;5030388;28;20021;-77
2022/07/28 07:05:42;;;;;;;11.90;4.85;;;;;;;;;;5031475;28;20030;-77
2022/07/28 07:08:07;;;;;;;11.07;4.05;;;;;;;;;;5030991;28;20029;-75
2022/07/28 07:10:34;;;;;;;12.00;4.05;;;;;;;;;;5010762;28;20064;-77
2022/07/28 07:13:03;;;;;;;9.25;3.42;;;;;;;;;;5012297;28;20029;-77
2022/07/28 07:15:28;;;;;;;16.45;4.32;;;;;;;;;;5007223;28;20117;-77
2022/07/28 07:17:54;;;;;;;8.20;3.60;;;;;;;;;;5004987;28;20116;-77
2022/07/28 07:20:19;;;;;;;8.15;3.92;;;;;;;;;;5007340;28;20137;-75
2022/07/28 07:22:45;;;;;;;8.57;3.50;;;;;;;;;;5012403;28;20022;-77
2022/07/28 07:25:15;;;;;;;11.27;2.92;;;;;;;;;;5010844;28;20025;-77
2022/07/28 07:27:40;;;;;;;12.95;4.63;;;;;;;;;;5011645;28;20117;-74
2022/07/28 07:30:06;;;;;;;5.95;3.17;;;;;;;;;;5012308;28;20088;-77
2022/07/28 07:32:35;;;;;;;11.30;3.88;;;;;;;;;;5026171;28;20026;-77
2022/07/28 07:35:00;;;;;;;11.38;2.83;;;;;;;;;;5005727;28;20636;-74
2022/07/28 07:37:26;;;;;;;7.10;2.30;;;;;;;;;;5011177;28;20033;-77
2022/07/28 07:39:51;;;;;;;11.65;3.40;;;;;;;;;;5011946;28;20112;-77
2022/07/28 07:42:17;;;;;;;6.20;2.15;;;;;;;;;;5011199;28;20121;-77
2022/07/28 07:44:42;;;;;;;11.30;2.70;;;;;;;;;;5011137;28;20474;-77
2022/07/28 07:47:10;;;;;;;6.43;2.20;;;;;;;;;;5006391;28;20014;-77
2022/07/28 07:49:39;;;;;;;7.45;2.55;;;;;;;;;;4992793;28;20069;-78
2022/07/28 07:52:04;;;;;;;7.30;2.35;;;;;;;;;;5012962;28;20032;-73
2022/07/28 07:54:29;;;;;;;7.63;1.70;;;;;;;;;;5011791;28;20397;-78
2022/07/28 07:56:54;;;;;;;7.72;2.38;;;;;;;;;;5010982;28;20040;-77
2022/07/28 07:59:20;;;;;;;7.47;2.38;;;;;;;;;;5011824;28;20092;-77
2022/07/28 08:01:45;;;;;;;7.30;1.65;;;;;;;;;;5010188;28;20521;-77
2022/07/28 08:04:10;;;;;;;8.20;2.42;;;;;;;;;;5026455;28;20033;-77
2022/07/28 08:06:35;;;;;;;9.90;3.28;;;;;;;;;;5011177;28;20393;-74
2022/07/28 08:09:01;;;;;;;5.18;2.10;;;;;;;;;;5026991;28;20037;-77
2022/07/28 08:11:26;;;;;;;12.38;2.53;;;;;;;;;;5025805;28;20085;-74
2022/07/28 08:13:51;;;;;;;8.60;2.33;;;;;;;;;;5014667;28;20026;-74
2022/07/28 08:16:16;;;;;;;3.47;2.00;;;;;;;;;;5015397;28;20042;-77
2022/07/28 08:18:42;;;;;;;6.30;1.85;;;;;;;;;;5030675;28;20722;-77
2022/07/28 08:21:08;;;;;;;8.02;3.05;;;;;;;;;;5030215;28;20482;-76
2022/07/28 08:23:33;;;;;;;3.65;1.55;;;;;;;;;;5014467;28;20033;-77
2022/07/28 08:25:58;;;;;;;6.90;2.00;;;;;;;;;;5020295;28;20512;-74
2022/07/28 08:28:23;;;;;;;5.53;2.00;;;;;;;;;;5015353;28;20034;-74
2022/07/28 08:30:49;;;;;;;7.68;2.03;;;;;;;;;;5006794;28;20435;-74
2022/07/28 08:33:14;;;;;;;5.40;1.85;;;;;;;;;;5010122;28;20549;-77
2022/07/28 08:35:40;;;;;;;3.38;1.80;;;;;;;;;;5011393;28;20029;-77
2022/07/28 08:38:05;;;;;;;2.35;1.40;;;;;;;;;;5014473;28;20041;-74
2022/07/28 08:40:31;;;;;;;3.38;1.60;;;;;;;;;;5014756;28;20105;-74
2022/07/28 08:43:02;;;;;;;5.22;1.70;;;;;;;;;;5013531;28;20018;-77
2022/07/28 08:45:29;;;;;;;5.65;1.80;;;;;;;;;;5013656;28;20082;-74
2022/07/28 08:47:55;;;;;;;6.30;2.00;;;;;;;;;;5013784;28;20132;-74
2022/07/28 08:50:23;;;;;;;6.68;2.53;;;;;;;;;;5014887;28;20509;-77
2022/07/28 08:52:48;;;;;;;4.38;2.00;;;;;;;;;;5014462;28;20022;-78
2022/07/28 08:55:14;;;;;;;6.18;1.85;;;;;;;;;;5014684;28;20026;-77
2022/07/28 08:57:40;;;;;;;7.28;2.40;;;;;;;;;;5013768;28;20034;-75
2022/07/28 09:00:06;;;;;;;6.22;1.90;;;;;;;;;;5015554;28;20104;-74
2022/07/28 09:02:32;;;;;;;8.75;3.00;;;;;;;;;;5008741;28;20125;-74
2022/07/28 09:04:57;;;;;;;6.28;1.80;;;;;;;;;;5012843;28;20558;-74
2022/07/28 09:07:23;;;;;;;4.80;2.22;;;;;;;;;;5014100;28;20108;-74
2022/07/28 09:09:51;;;;;;;6.00;2.60;;;;;;;;;;5019154;28;20033;-77
2022/07/28 09:12:19;;;;;;;3.13;1.65;;;;;;;;;;5033464;28;20033;-76
2022/07/28 09:14:44;;;;;;;6.07;2.53;;;;;;;;;;5033418;28;20010;-76
2022/07/28 09:17:10;;;;;;;7.60;2.10;;;;;;;;;;5034021;28;20083;-74
2022/07/28 09:19:38;;;;;;;5.78;2.05;;;;;;;;;;5016647;28;20116;-77
2022/07/28 09:22:04;;;;;;;7.00;2.45;;;;;;;;;;5034003;28;20496;-74
2022/07/28 09:24:36;;;;;;;8.50;2.65;;;;;;;;;;5014652;28;20094;-75
2022/07/28 09:27:06;;;;;;;8.65;2.10;;;;;;;;;;5032380;28;20029;-74
2022/07/28 09:29:32;;;;;;;4.47;2.08;;;;;;;;;;5016093;28;20502;-74
2022/07/28 09:31:57;;;;;;;8.15;2.22;;;;;;;;;;5015033;28;20022;-76
2022/07/28 09:34:23;;;;;;;7.90;2.15;;;;;;;;;;5049212;28;20021;-74
2022/07/28 09:36:48;;;;;;;4.82;2.03;;;;;;;;;;5053073;28;20028;-75
2022/07/28 09:39:33;;;;;;;7.88;2.20;;;;;;;;;;5014974;28;20018;-75
2022/07/28 09:41:58;;;;;;;10.25;2.70;;;;;;;;;;5012831;28;20018;-74
2022/07/28 09:44:25;;;;;;;4.70;2.42;;;;;;;;;;5032992;28;20030;-73
2022/07/28 09:46:56;;;;;;;7.53;2.15;;;;;;;;;;5033074;28;20385;-76
2022/07/28 09:49:37;;;;;;;4.95;2.22;;;;;;;;;;5032834;28;20068;-74
2022/07/28 09:52:04;;;;;;;8.63;2.75;;;;;;;;;;5033059;28;20125;-76
2022/07/28 09:54:29;;;;;;;6.97;2.38;;;;;;;;;;5004100;28;20068;-76
2022/07/28 09:56:55;;;;;;;6.03;2.13;;;;;;;;;;5014308;28;20512;-75
2022/07/28 09:59:20;;;;;;;7.60;2.03;;;;;;;;;;5027719;28;20171;-76
2022/07/28 10:01:53;;;;;;;6.25;1.85;;;;;;;;;;5032363;28;20041;-76
2022/07/28 10:04:31;;;;;;;7.05;2.38;;;;;;;;;;5032611;28;20493;-72
2022/07/28 10:07:04;;;;;;;4.13;1.77;;;;;;;;;;5033216;28;20480;-72
2022/07/28 10:09:29;;;;;;;;;;;;;;;;;;5033353;28;20026;-75
2022/07/28 10:12:09;;;;;;;5.28;1.98;;;;;;;;;;5032400;28;19913;-75
2022/07/28 10:14:37;;;;;;;6.32;2.85;;;;;;;;;;5015291;28;20055;-76
2022/07/28 10:17:06;;;;;;;6.03;1.85;;;;;;;;;;5030918;28;20044;-76
2022/07/28 10:19:35;;;;;;;3.95;2.08;;;;;;;;;;5032701;28;20028;-73
2022/07/28 10:22:03;;;;;;;7.57;2.10;;;;;;;;;;5032863;28;20124;-73
2022/07/28 10:24:30;;;;;;;8.30;1.95;;;;;;;;;;5035890;28;20032;-77
2022/07/28 10:26:56;;;;;;;4.13;1.98;;;;;;;;;;5031644;28;20033;-76
2022/07/28 10:29:23;;;;;;;6.22;2.13;;;;;;;;;;5032890;28;20076;-75
2022/07/28 10:31:50;;;;;;;7.10;2.00;;;;;;;;;;5032109;28;20091;-76
2022/07/28 10:34:28;;;;;;;6.28;2.92;;;;;;;;;;5031560;28;20013;-73
2022/07/28 10:36:54;;;;;;;5.50;1.90;;;;;;;;;;5032568;28;20036;-75
2022/07/28 10:39:21;;;;;;;9.50;1.75;;;;;;;;;;5032308;28;20013;-73
2022/07/28 10:41:46;;;;;;;4.30;2.08;;;;;;;;;;5026592;28;20033;-76
2022/07/28 10:44:17;;;;;;;10.05;2.10;;;;;;;;;;5032104;28;20071;-75
2022/07/28 10:46:42;;;;;;;4.22;2.10;;;;;;;;;;5031367;28;20104;-75
2022/07/28 10:49:09;;;;;;;7.03;2.05;;;;;;;;;;5031653;28;20105;-77
2022/07/28 10:51:35;;;;;;;5.50;3.10;;;;;;;;;;5030841;28;20112;-77
2022/07/28 10:54:09;;;;;;;4.05;1.77;;;;;;;;;;5031397;28;20105;-76
2022/07/28 10:56:34;;;;;;;3.78;1.55;;;;;;;;;;5030745;28;20083;-74
2022/07/28 10:59:06;;;;;;;2.97;1.80;;;;;;;;;;5030805;28;20489;-77
2022/07/28 11:01:36;;;;;;;5.82;2.40;;;;;;;;;;5031689;28;20826;-77
2022/07/28 11:04:01;;;;;;;6.25;2.22;;;;;;;;;;5031656;28;20025;-77
2022/07/28 11:06:28;;;;;;;4.25;2.13;;;;;;;;;;5010274;28;20096;-76
2022/07/28 11:08:54;;;;;;;5.55;1.85;;;;;;;;;;5001526;28;20029;-76
2022/07/28 11:11:38;;;;;;;4.55;2.40;;;;;;;;;;5031659;28;20041;-76
2022/07/28 11:14:21;;;;;;;4.75;2.13;;;;;;;;;;5029740;28;20043;-74
2022/07/28 11:16:47;;;;;;;4.18;2.55;;;;;;;;;;5032407;28;20052;-78
2022/07/28 11:19:14;;;;;;;7.28;2.13;;;;;;;;;;5014083;28;20410;-74
2022/07/28 11:22:05;;;;;;;9.80;2.10;;;;;;;;;;5031267;28;20927;-74
2022/07/28 11:24:49;;;;;;;5.03;2.20;;;;;;;;;;5014045;28;20091;-74
2022/07/28 11:27:14;;;;;;;4.18;2.22;;;;;;;;;;5031236;28;20022;-76
2022/07/28 11:29:46;;;;;;;4.63;3.08;;;;;;;;;;5031967;28;20029;-76
2022/07/28 11:32:11;;;;;;;8.57;2.45;;;;;;;;;;5031472;28;20068;-76
2022/07/28 11:34:55;;;;;;;6.10;2.30;;;;;;;;;;5031742;28;20045;-77
2022/07/28 11:37:21;;;;;;;7.88;2.20;;;;;;;;;;5011774;28;20022;-77
2022/07/28 11:39:46;;;;;;;7.00;2.20;;;;;;;;;;5014837;28;20474;-75
2022/07/28 11:42:31;;;;;;;7.63;2.50;;;;;;;;;;5029953;28;20028;-77
2022/07/28 11:45:16;;;;;;;7.60;2.10;;;;;;;;;;5030542;28;20270;-75
2022/07/28 11:47:41;;;;;;;5.05;1.90;;;;;;;;;;5032710;28;20434;-75
2022/07/28 11:50:14;;;;;;;6.35;1.77;;;;;;;;;;5017598;28;20121;-76
2022/07/28 11:52:39;;;;;;;;;;;;;;;;;;5018504;28;20025;-77
2022/07/28 11:55:05;;;;;;;4.97;2.00;;;;;;;;;;5035856;28;19912;-75
2022/07/28 11:57:37;;;;;;;3.83;2.08;;;;;;;;;;5034417;28;20091;-76
2022/07/28 12:00:03;;;;;;;8.57;1.90;;;;;;;;;;5015386;28;20481;-76
2022/07/28 12:02:29;;;;;;;3.88;1.73;;;;;;;;;;5032895;28;20037;-76
2022/07/28 12:04:59;;;;;;;10.88;2.55;;;;;;;;;;5035774;28;20059;-76
2022/07/28 12:07:43;;;;;;;5.82;2.00;;;;;;;;;;5034844;28;20496;-75
2022/07/28 12:10:27;;;;;;;8.15;3.20;;;;;;;;;;5034927;28;20398;-74
2022/07/28 12:12:52;;;;;;;3.15;1.80;;;;;;;;;;5034508;28;20021;-76
2022/07/28 12:15:21;;;;;;;4.68;2.10;;;;;;;;;;5016622;28;20381;-75
2022/07/28 12:17:47;;;;;;;8.80;1.95;;;;;;;;;;5017117;28;20067;-74
2022/07/28 12:20:13;;;;;;;3.78;1.95;;;;;;;;;;5034806;28;20493;-74
2022/07/28 12:22:38;;;;;;;7.40;2.03;;;;;;;;;;5034285;28;20071;-75
2022/07/28 12:25:03;;;;;;;4.22;2.15;;;;;;;;;;5034354;28;20029;-74
2022/07/28 12:27:28;;;;;;;2.28;1.30;;;;;;;;;;5033973;28;20025;-76
2022/07/28 12:29:57;;;;;;;5.95;3.13;;;;;;;;;;5034532;28;20021;-76
2022/07/28 12:32:28;;;;;;;4.78;2.47;;;;;;;;;;5034182;28;20067;-76
2022/07/28 12:34:57;;;;;;;4.03;1.30;;;;;;;;;;5034970;28;20389;-73
2022/07/28 12:37:22;;;;;;;3.88;1.60;;;;;;;;;;5034555;28;20417;-76
2022/07/28 12:39:51;;;;;;;4.32;1.92;;;;;;;;;;5035238;28;20059;-74
2022/07/28 12:42:16;;;;;;;7.15;1.80;;;;;;;;;;5047260;28;20038;-74
2022/07/28 12:44:42;;;;;;;6.43;1.48;;;;;;;;;;5034484;28;20017;-76
2022/07/28 12:47:10;;;;;;;5.05;1.80;;;;;;;;;;5033648;28;20021;-77
2022/07/28 12:49:36;;;;;;;6.78;2.08;;;;;;;;;;5033836;28;20041;-74
2022/07/28 12:52:23;;;;;;;4.43;2.42;;;;;;;;;;5034536;28;20029;-76
2022/07/28 12:54:52;;;;;;;8.93;2.03;;;;;;;;;;5033599;28;20013;-74
2022/07/28 12:57:17;;;;;;;4.70;1.58;;;;;;;;;;5033053;28;20056;-76
2022/07/28 12:59:42;;;;;;;8.88;2.08;;;;;;;;;;5033841;28;20021;-75
2022/07/28 13:02:08;;;;;;;5.65;1.70;;;;;;;;;;5033606;28;20013;-75
2022/07/28 13:04:39;;;;;;;6.90;1.52;;;;;;;;;;5033855;28;20032;-76
2022/07/28 13:07:11;;;;;;;4.22;1.80;;;;;;;;;;5033005;28;20044;-74
2022/07/28 13:09:44;;;;;;;4.88;1.70;;;;;;;;;;5033168;28;20045;-76
2022/07/28 13:12:13;;;;;;;5.65;1.70;;;;;;;;;;5033313;28;20473;-75
2022/07/28 13:14:39;;;;;;;5.32;1.60;;;;;;;;;;5041761;28;20075;-75
2022/07/28 13:17:05;;;;;;;7.30;1.73;;;;;;;;;;5035914;28;20451;-74
2022/07/28 13:19:30;;;;;;;2.92;1.67;;;;;;;;;;5032748;28;20104;-74
2022/07/28 13:21:56;;;;;;;3.60;1.70;;;;;;;;;;5033042;28;20029;-76
2022/07/28 13:24:22;;;;;;;12.18;1.77;;;;;;;;;;5032942;28;20294;-75
2022/07/28 13:26:47;;;;;;;8.05;3.88;;;;;;;;;;5014995;28;20065;-76
2022/07/28 13:29:13;;;;;;;4.70;1.63;;;;;;;;;;5032855;28;20093;-76
2022/07/28 13:31:39;;;;;;;4.15;1.65;;;;;;;;;;5033574;28;20024;-76
2022/07/28 13:34:05;;;;;;;5.82;1.90;;;;;;;;;;5015245;28;20548;-75
2022/07/28 13:36:30;;;;;;;3.53;1.50;;;;;;;;;;5033217;28;20047;-77
2022/07/28 13:38:58;;;;;;;8.60;1.83;;;;;;;;;;5032499;28;20026;-75
2022/07/28 13:41:23;;;;;;;6.43;2.03;;;;;;;;;;5033070;28;20021;-76
2022/07/28 13:43:49;;;;;;;10.70;3.35;;;;;;;;;;5032145;28;20040;-76
2022/07/28 13:46:15;;;;;;;6.63;1.92;;;;;;;;;;5032921;28;20021;-74
2022/07/28 13:48:43;;;;;;;5.53;1.52;;;;;;;;;;5042145;28;20031;-74
2022/07/28 13:51:12;;;;;;;11.30;4.30;;;;;;;;;;5037987;28;20064;-76
2022/07/28 13:53:41;;;;;;;4.47;1.73;;;;;;;;;;5032874;28;20104;-76
2022/07/28 13:56:07;;;;;;;5.88;2.72;;;;;;;;;;5032185;28;20033;-74
2022/07/28 13:58:33;;;;;;;7.75;1.77;;;;;;;;;;5015348;28;20385;-76
2022/07/28 14:01:02;;;;;;;4.47;1.50;;;;;;;;;;5032819;28;20490;-74
2022/07/28 14:03:29;;;;;;;3.13;2.20;;;;;;;;;;5031570;28;20034;-76
2022/07/28 14:05:54;;;;;;;5.63;1.67;;;;;;;;;;5026027;28;20060;-74
2022/07/28 14:08:19;;;;;;;5.13;1.73;;;;;;;;;;5036538;28;20493;-74
2022/07/28 14:10:48;;;;;;;4.13;1.67;;;;;;;;;;5031741;28;20064;-76
2022/07/28 14:13:14;;;;;;;6.40;1.77;;;;;;;;;;5031905;28;20489;-74
2022/07/28 14:15:39;;;;;;;4.28;1.85;;;;;;;;;;5031321;28;20036;-75
2022/07/28 14:18:08;;;;;;;6.43;1.73;;;;;;;;;;5032287;28;20033;-74
2022/07/28 14:20:33;;;;;;;2.70;1.25;;;;;;;;;;5013548;28;20022;-74
2022/07/28 14:22:58;;;;;;;6.40;1.45;;;;;;;;;;5002170;28;20038;-75
2022/07/28 14:25:24;;;;;;;6.13;1.60;;;;;;;;;;5030360;28;20064;-76
2022/07/28 14:27:50;;;;;;;5.05;2.78;;;;;;;;;;5013980;28;20478;-75
2022/07/28 14:30:15;;;;;;;4.43;1.45;;;;;;;;;;5031832;28;20075;-76
2022/07/28 14:32:44;;;;;;;5.55;2.83;;;;;;;;;;5032168;28;20037;-76
2022/07/28 14:35:09;;;;;;;5.65;1.55;;;;;;;;;;5011434;28;20034;-74
2022/07/28 14:37:34;;;;;;;5.55;2.10;;;;;;;;;;5022213;28;20037;-76
2022/07/28 14:39:59;;;;;;;6.03;2.35;;;;;;;;;;5028972;28;20495;-74